メインページ
METAR-TAF:

METAR-TAF

空港 :

フォール=ド=フランス, マルティニーク

マルティニーク・エメ・セゼール国際空港

緯度: 14-36N, 経度: 061-00W, 海抜: 5m

現時点の気象観測

当レポートは18分前の23:00(UTC)に作成
の風 9kt
気温 28°C
湿度 74%
気圧 1015 hPa
視程10km以上

METAR: TFFF 272300Z AUTO 09009KT 9999 BKN052/// ///TCU 28/23 Q1015 TEMPO 4000 SHRA

時間: 19:18 (23:18 UTC)

予報

当レポートは6時間18分前の17:00(UTC)に作成
予報は27日の 18時(UTC)から 28日の 18時(UTC)まで有効
の風 12kt、最大25ktの突風を伴う
視程10km以上
高度2500ftの雲は散在している
27日の 18時(UTC)から 28日の 12時(UTC)まで一時的に
視程: 4000m
高度1800ftの雲は散在している, 塔状積雲.
にわか雨
確率 30% :
28日の 06時(UTC)から 28日の 18時(UTC)まで一時的に
視程: 1000m
高度1500ftの千切れ雲あり, 積乱雲.
激しい雷雨, 雨

TAF: TFFF 271700Z 2718/2818 08012G25KT 9999 SCT025 TEMPO 2718/2812 4000 SHRA SCT018TCU PROB30 TEMPO 2806/2818 1000 TSRA BKN015CB

4,000以上の空港の気象観測と天気予報(METAR報とTAF報)

利用可能な観測所は地図上に黄色い丸と赤い丸で示す。

丸の上にカーソルを重ねると観測所名を参照できる。

次にクリックすると気象観測と天気予報を参照できる。

マップの切り替え:黒色「×」印の緑ボタンをクリックして拡大、「-」印の緑ボタンをクリックして縮小、緑色の三角印をクリックして隣りの地図に切り替え


METAR-TAF: